This is the latest recevied weather packets stored in our database for station/object W1ERB-13. If no packets are shown the sender has not sent any weather packets the latest 10 day(s).
| Time | Temp. | Humidity | Pressure | Rain* | Wind** | Luminosity | Snow |
|---|---|---|---|---|---|---|---|
| 1778005927 | 24.44° C | 50% | 1008 hPa | 0 mm | - | 665 W/m² | - |
| 1778005622 | 24.44° C | 51% | 1008.4 hPa | 0 mm | - | 675 W/m² | - |
| 1778005320 | 24.44° C | 49% | 1008.3 hPa | 0 mm | - | 683 W/m² | - |
| 1778005016 | 25° C | 49% | 1008.4 hPa | 0 mm | - | 688 W/m² | - |
| 1778004715 | 25° C | 51% | 1008.2 hPa | 0 mm | - | 701 W/m² | - |
| 1778004410 | 25° C | 48% | 1008.2 hPa | 0 mm | - | 701 W/m² | - |
| 1778004108 | 25° C | 50% | 1008.5 hPa | 0 mm | - | 695 W/m² | - |
| 1778003803 | 25° C | 50% | 1008.2 hPa | 0 mm | - | 682 W/m² | - |
| 1778003500 | 23.89° C | 53% | 1008.3 hPa | 0 mm | - | 691 W/m² | - |
| 1778003197 | 23.89° C | 50% | 1008.3 hPa | 0 mm | - | 694 W/m² | - |
| 1778002893 | 24.44° C | 50% | 1008.5 hPa | 0 mm | - | 710 W/m² | - |
| 1778002590 | 24.44° C | 52% | 1008.6 hPa | 0 mm | - | 711 W/m² | - |
| 1778002287 | 25° C | 50% | 1008.7 hPa | 0 mm | - | 715 W/m² | - |
| 1778001984 | 25° C | 49% | 1008.5 hPa | 0 mm | - | 715 W/m² | - |
| 1778001681 | 23.89° C | 52% | 1008.4 hPa | 0 mm | - | 713 W/m² | - |
| 1778001375 | 23.89° C | 51% | 1008.5 hPa | 0 mm | - | 721 W/m² | - |
| 1778001073 | 24.44° C | 52% | 1008.4 hPa | 0 mm | - | 723 W/m² | - |
| 1778000770 | 23.89° C | 54% | 1008.6 hPa | 0 mm | - | 721 W/m² | - |
| 1778000466 | 24.44° C | 52% | 1008.8 hPa | 0 mm | - | 718 W/m² | - |
| 1778000161 | 23.89° C | 53% | 1008.7 hPa | 0 mm | - | 721 W/m² | - |
| 1777999857 | 23.89° C | 51% | 1008.9 hPa | 0 mm | - | 720 W/m² | - |
| 1777999553 | 24.44° C | 51% | 1009 hPa | 0 mm | - | 716 W/m² | - |
| 1777999251 | 23.89° C | 50% | 1009.1 hPa | 0 mm | - | 717 W/m² | - |
| 1777998949 | 23.89° C | 51% | 1009.2 hPa | 0 mm | - | 714 W/m² | - |
| 1777998645 | 23.33° C | 54% | 1009.5 hPa | 0 mm | - | 714 W/m² | - |
* Rain latest hour (hover to see other rain measurements)
** Current wind speed in m/s (hover to see current wind gust speed)